Time;durP1;ratioP1;P1;durP2;ratioP2;P2;SDS_P1;SDS_P2;PMS_P1;PMS_P2;Temp;Humidity;BMP_temperature;BMP_pressure;BME280_temperature;BME280_humidity;BME280_pressure;Samples;Min_cycle;Max_cycle;Signal;HPM_P1;HPM_P2
2022/04/14 00:02:10;;;;;;;12.30;4.27;;;;;;;;;;6272465;22;20193;-85
2022/04/14 00:05:17;;;;;;;8.03;4.50;;;;;;;;;;6271568;22;20170;-86
2022/04/14 00:08:22;;;;;;;8.17;4.40;;;;;;;;;;6270531;22;20161;-86
2022/04/14 00:11:27;;;;;;;8.33;4.30;;;;;;;;;;6270687;22;20208;-86
2022/04/14 00:14:32;;;;;;;10.97;4.33;;;;;;;;;;6269858;22;20267;-87
2022/04/14 00:17:37;;;;;;;10.37;4.50;;;;;;;;;;6269315;22;20166;-87
2022/04/14 00:20:44;;;;;;;10.07;4.53;;;;;;;;;;6272014;22;20169;-87
2022/04/14 00:23:49;;;;;;;9.27;5.03;;;;;;;;;;6288987;22;20169;-87
2022/04/14 00:26:54;;;;;;;9.90;4.53;;;;;;;;;;6269834;22;20617;-86
2022/04/14 00:29:59;;;;;;;12.10;3.93;;;;;;;;;;6270453;22;20613;-87
2022/04/14 00:33:04;;;;;;;9.00;4.20;;;;;;;;;;6270221;22;20181;-85
2022/04/14 00:36:10;;;;;;;11.60;4.20;;;;;;;;;;6267593;22;20161;-87
2022/04/14 00:39:16;;;;;;;10.43;4.47;;;;;;;;;;6268056;22;20166;-86
2022/04/14 00:42:21;;;;;;;13.63;4.57;;;;;;;;;;6269258;22;20236;-87
2022/04/14 00:45:26;;;;;;;7.03;4.20;;;;;;;;;;6269190;22;20682;-86
2022/04/14 00:48:32;;;;;;;9.43;4.60;;;;;;;;;;6271364;22;20173;-87
2022/04/14 00:51:38;;;;;;;13.67;5.00;;;;;;;;;;6268873;22;20204;-87
2022/04/14 00:54:44;;;;;;;9.63;4.73;;;;;;;;;;6269150;22;20242;-87
2022/04/14 00:57:49;;;;;;;11.17;4.80;;;;;;;;;;6271394;22;20165;-87
2022/04/14 01:00:55;;;;;;;9.40;5.30;;;;;;;;;;6271001;22;20223;-86
2022/04/14 01:04:01;;;;;;;9.73;5.20;;;;;;;;;;6270285;22;20498;-87
2022/04/14 01:07:08;;;;;;;10.83;5.30;;;;;;;;;;6269092;22;20240;-87
2022/04/14 01:10:13;;;;;;;11.93;5.37;;;;;;;;;;6268759;22;20165;-86
2022/04/14 01:13:19;;;;;;;10.13;4.70;;;;;;;;;;6270072;22;20263;-86
2022/04/14 01:16:24;;;;;;;9.10;4.83;;;;;;;;;;6287076;22;20256;-85
2022/04/14 01:19:29;;;;;;;11.77;5.10;;;;;;;;;;6268144;22;20209;-86
2022/04/14 01:22:37;;;;;;;12.90;6.00;;;;;;;;;;6267915;22;20240;-84
2022/04/14 01:25:43;;;;;;;11.07;5.50;;;;;;;;;;6266317;22;20193;-85
2022/04/14 01:28:51;;;;;;;14.20;5.70;;;;;;;;;;6268135;22;20150;-86
2022/04/14 01:31:56;;;;;;;13.83;6.73;;;;;;;;;;6269766;22;20166;-86
2022/04/14 01:35:01;;;;;;;15.37;6.83;;;;;;;;;;6268255;22;20201;-86
2022/04/14 01:38:08;;;;;;;17.67;7.77;;;;;;;;;;6268278;22;20176;-86
2022/04/14 01:41:15;;;;;;;18.13;6.57;;;;;;;;;;6267808;22;20601;-87
2022/04/14 01:44:20;;;;;;;13.80;6.60;;;;;;;;;;6268441;22;20170;-86
2022/04/14 01:47:25;;;;;;;15.30;6.60;;;;;;;;;;6269041;22;20178;-86
2022/04/14 01:50:29;;;;;;;20.00;7.73;;;;;;;;;;6270771;22;20166;-87
2022/04/14 01:53:35;;;;;;;21.60;8.47;;;;;;;;;;6270582;22;20188;-86
2022/04/14 01:56:42;;;;;;;24.07;9.53;;;;;;;;;;6267501;22;20208;-86
2022/04/14 01:59:47;;;;;;;21.87;8.27;;;;;;;;;;6267588;22;20244;-86
2022/04/14 02:02:52;;;;;;;23.53;9.03;;;;;;;;;;6269279;22;20165;-86
2022/04/14 02:05:58;;;;;;;21.83;8.07;;;;;;;;;;6268809;22;20170;-86
2022/04/14 02:09:03;;;;;;;23.40;7.60;;;;;;;;;;6268875;22;20197;-85
2022/04/14 02:12:11;;;;;;;19.90;8.47;;;;;;;;;;6266475;22;20277;-85
2022/04/14 02:15:17;;;;;;;34.50;11.57;;;;;;;;;;6270900;22;20209;-86
2022/04/14 02:18:32;;;;;;;26.97;10.83;;;;;;;;;;6268429;22;20216;-86
2022/04/14 02:21:37;;;;;;;27.70;9.77;;;;;;;;;;6267300;22;20208;-86
2022/04/14 02:24:42;;;;;;;30.10;9.80;;;;;;;;;;6269126;22;20170;-85
2022/04/14 02:27:49;;;;;;;22.77;8.60;;;;;;;;;;6270747;22;20185;-87
2022/04/14 02:30:54;;;;;;;19.07;8.50;;;;;;;;;;6290129;22;20243;-86
2022/04/14 02:33:59;;;;;;;22.73;8.90;;;;;;;;;;6268941;22;20190;-85
2022/04/14 02:37:04;;;;;;;27.13;9.33;;;;;;;;;;6269147;22;20226;-86
2022/04/14 02:40:09;;;;;;;24.47;9.97;;;;;;;;;;6268669;22;20166;-86
2022/04/14 02:43:16;;;;;;;21.47;9.63;;;;;;;;;;6268849;22;20165;-86
2022/04/14 02:46:21;;;;;;;17.73;7.07;;;;;;;;;;6270982;22;20166;-87
2022/04/14 02:49:26;;;;;;;17.03;6.40;;;;;;;;;;6268289;22;20609;-86
2022/04/14 02:52:32;;;;;;;13.33;6.27;;;;;;;;;;6289565;22;20170;-86
2022/04/14 02:55:38;;;;;;;11.50;6.03;;;;;;;;;;6270946;22;20188;-87
2022/04/14 02:58:46;;;;;;;13.37;5.97;;;;;;;;;;6269769;22;20174;-86
2022/04/14 03:01:54;;;;;;;11.47;5.90;;;;;;;;;;6270112;22;20170;-87
2022/04/14 03:04:59;;;;;;;20.23;6.83;;;;;;;;;;6269541;22;20174;-87
2022/04/14 03:08:05;;;;;;;12.20;5.77;;;;;;;;;;6271694;22;20656;-86
2022/04/14 03:11:12;;;;;;;13.93;5.97;;;;;;;;;;6270715;22;20165;-86
2022/04/14 03:14:18;;;;;;;12.83;5.60;;;;;;;;;;6269168;22;20212;-87
2022/04/14 03:17:24;;;;;;;12.87;6.23;;;;;;;;;;6268543;22;20174;-86
2022/04/14 03:20:30;;;;;;;15.20;6.03;;;;;;;;;;6268057;22;20213;-86
2022/04/14 03:23:35;;;;;;;11.03;5.80;;;;;;;;;;6269649;22;20149;-87
2022/04/14 03:26:40;;;;;;;10.60;5.80;;;;;;;;;;6270585;22;20189;-86
2022/04/14 03:29:47;;;;;;;10.60;6.37;;;;;;;;;;6271780;22;20177;-86
2022/04/14 03:32:52;;;;;;;12.93;6.20;;;;;;;;;;6271943;22;20165;-86
2022/04/14 03:35:57;;;;;;;13.07;6.40;;;;;;;;;;6269655;22;20193;-86
2022/04/14 03:39:02;;;;;;;14.63;6.43;;;;;;;;;;6270687;22;20203;-86
2022/04/14 03:42:07;;;;;;;11.70;6.80;;;;;;;;;;6268844;22;20165;-86
2022/04/14 03:45:14;;;;;;;14.57;6.40;;;;;;;;;;6269506;22;20177;-86
2022/04/14 03:48:20;;;;;;;13.90;7.00;;;;;;;;;;6269467;22;20205;-88
2022/04/14 03:51:25;;;;;;;18.13;6.20;;;;;;;;;;6270672;22;20174;-86
2022/04/14 03:54:30;;;;;;;16.00;6.47;;;;;;;;;;6268369;22;20188;-87
2022/04/14 03:57:36;;;;;;;11.37;5.97;;;;;;;;;;6267245;22;20671;-87
2022/04/14 04:00:43;;;;;;;13.90;6.27;;;;;;;;;;6267852;22;20253;-86
2022/04/14 04:03:48;;;;;;;14.23;6.30;;;;;;;;;;6267399;22;20158;-86
2022/04/14 04:06:55;;;;;;;14.27;6.43;;;;;;;;;;6266686;22;20170;-87
2022/04/14 04:10:02;;;;;;;9.87;5.83;;;;;;;;;;6265750;22;20161;-86
2022/04/14 04:13:07;;;;;;;11.77;6.17;;;;;;;;;;6269279;22;20238;-87
2022/04/14 04:16:14;;;;;;;14.77;7.10;;;;;;;;;;6267677;22;20277;-86
2022/04/14 04:19:19;;;;;;;9.87;6.17;;;;;;;;;;6268462;22;20513;-87
2022/04/14 04:22:25;;;;;;;13.23;5.70;;;;;;;;;;6266903;22;20173;-86
2022/04/14 04:25:30;;;;;;;11.80;5.97;;;;;;;;;;6265437;22;20243;-86
2022/04/14 04:28:35;;;;;;;13.40;6.17;;;;;;;;;;6267717;22;20166;-87
2022/04/14 04:31:41;;;;;;;15.83;5.53;;;;;;;;;;6265691;22;20513;-86
2022/04/14 04:34:47;;;;;;;13.03;5.70;;;;;;;;;;6266280;22;20200;-86
2022/04/14 04:37:51;;;;;;;14.07;6.63;;;;;;;;;;6265594;22;20178;-86
2022/04/14 04:40:58;;;;;;;12.13;5.97;;;;;;;;;;6266255;22;20165;-85
2022/04/14 04:44:06;;;;;;;18.63;7.00;;;;;;;;;;6266294;22;20244;-86
2022/04/14 04:47:12;;;;;;;16.37;6.40;;;;;;;;;;6266507;22;20165;-87
2022/04/14 04:50:17;;;;;;;13.57;6.10;;;;;;;;;;6266390;22;20293;-86
2022/04/14 04:53:22;;;;;;;13.20;6.30;;;;;;;;;;6266827;22;20166;-87
2022/04/14 04:56:27;;;;;;;13.30;6.87;;;;;;;;;;6265663;22;20161;-86
2022/04/14 04:59:33;;;;;;;11.17;6.57;;;;;;;;;;6266228;22;20228;-85
2022/04/14 05:02:40;;;;;;;17.47;6.77;;;;;;;;;;6269321;22;20238;-87
2022/04/14 05:05:44;;;;;;;11.27;6.13;;;;;;;;;;6266347;22;20170;-86
2022/04/14 05:08:49;;;;;;;13.50;5.90;;;;;;;;;;6268602;22;20157;-87
2022/04/14 05:11:55;;;;;;;9.93;5.57;;;;;;;;;;6268425;22;20200;-86
2022/04/14 05:15:00;;;;;;;11.20;6.07;;;;;;;;;;6286918;22;20189;-87
2022/04/14 05:18:16;;;;;;;13.27;6.73;;;;;;;;;;6268198;22;20170;-87
2022/04/14 05:21:21;;;;;;;12.03;6.27;;;;;;;;;;6268994;22;20166;-86
2022/04/14 05:24:26;;;;;;;12.70;6.17;;;;;;;;;;6268557;22;20664;-86
2022/04/14 05:27:31;;;;;;;10.23;5.40;;;;;;;;;;6268586;22;20181;-86
2022/04/14 05:30:36;;;;;;;10.30;5.37;;;;;;;;;;6268383;22;20166;-87
2022/04/14 05:33:43;;;;;;;12.37;5.60;;;;;;;;;;6288429;22;20165;-86
2022/04/14 05:36:48;;;;;;;8.63;5.60;;;;;;;;;;6269164;22;20162;-87
2022/04/14 05:39:53;;;;;;;10.57;5.70;;;;;;;;;;6267434;22;20251;-87
2022/04/14 05:42:58;;;;;;;12.07;5.63;;;;;;;;;;6270718;22;20217;-87
2022/04/14 05:46:03;;;;;;;10.37;5.43;;;;;;;;;;6270125;22;20557;-85
2022/04/14 05:49:10;;;;;;;14.13;5.30;;;;;;;;;;6288787;22;20655;-87
2022/04/14 05:52:15;;;;;;;11.33;4.83;;;;;;;;;;6270915;22;20166;-86
2022/04/14 05:55:20;;;;;;;14.07;5.60;;;;;;;;;;6270426;22;20263;-87
2022/04/14 05:58:25;;;;;;;14.57;6.13;;;;;;;;;;6269218;22;20161;-87
2022/04/14 06:01:31;;;;;;;14.73;6.00;;;;;;;;;;6270292;22;20162;-87
2022/04/14 06:04:37;;;;;;;10.00;5.05;;;;;;;;;;6270664;22;20535;-87
2022/04/14 06:07:43;;;;;;;13.07;5.28;;;;;;;;;;6270621;22;20613;-87
2022/04/14 06:10:48;;;;;;;14.65;5.68;;;;;;;;;;6270965;22;20565;-86
2022/04/14 06:13:53;;;;;;;14.65;5.07;;;;;;;;;;6270106;22;20166;-86
2022/04/14 06:16:59;;;;;;;12.18;5.20;;;;;;;;;;6270117;22;20157;-87
2022/04/14 06:20:08;;;;;;;12.57;5.07;;;;;;;;;;6271607;22;20165;-87
2022/04/14 06:23:16;;;;;;;15.18;5.30;;;;;;;;;;6270969;22;20154;-87
2022/04/14 06:26:21;;;;;;;14.43;5.28;;;;;;;;;;6270407;22;20189;-88
2022/04/14 06:29:26;;;;;;;14.63;5.20;;;;;;;;;;6269348;22;20157;-86
2022/04/14 06:32:31;;;;;;;13.95;4.97;;;;;;;;;;6268226;22;20213;-89
2022/04/14 06:35:38;;;;;;;9.68;4.72;;;;;;;;;;6270715;22;20219;-87
2022/04/14 06:38:43;;;;;;;14.43;5.20;;;;;;;;;;6271092;22;20181;-88
2022/04/14 06:41:48;;;;;;;13.18;5.05;;;;;;;;;;6270767;22;20262;-87
2022/04/14 06:44:59;;;;;;;8.15;4.63;;;;;;;;;;6268201;22;20165;-88
2022/04/14 06:48:04;;;;;;;9.25;4.43;;;;;;;;;;6266644;22;20161;-85
2022/04/14 06:51:10;;;;;;;16.95;4.80;;;;;;;;;;6269659;22;20157;-87
2022/04/14 06:54:17;;;;;;;13.60;5.60;;;;;;;;;;6269407;22;20165;-87
2022/04/14 06:57:22;;;;;;;12.35;4.22;;;;;;;;;;6270920;22;20244;-86
2022/04/14 07:00:27;;;;;;;5.95;4.20;;;;;;;;;;6271016;22;20192;-87
2022/04/14 07:03:32;;;;;;;9.52;4.50;;;;;;;;;;6270161;22;20173;-88
2022/04/14 07:06:39;;;;;;;14.55;4.80;;;;;;;;;;6271673;22;20240;-87
2022/04/14 07:09:44;;;;;;;10.48;4.72;;;;;;;;;;6269977;22;20233;-89
2022/04/14 07:13:07;;;;;;;9.65;4.40;;;;;;;;;;6268923;22;20162;-87
2022/04/14 07:16:12;;;;;;;8.80;4.45;;;;;;;;;;6269049;22;20190;-88
2022/04/14 07:19:27;;;;;;;16.77;4.85;;;;;;;;;;6290014;22;20157;-88
2022/04/14 07:22:42;;;;;;;12.80;4.72;;;;;;;;;;6270406;22;20186;-90
2022/04/14 07:25:50;;;;;;;14.13;4.97;;;;;;;;;;6271326;22;20150;-88
2022/04/14 07:28:55;;;;;;;11.95;4.90;;;;;;;;;;6271988;22;20230;-88
2022/04/14 07:32:00;;;;;;;9.88;4.72;;;;;;;;;;6273290;22;20161;-88
2022/04/14 07:35:06;;;;;;;13.82;4.35;;;;;;;;;;6271152;22;20193;-88
2022/04/14 07:38:14;;;;;;;7.50;4.20;;;;;;;;;;6269722;22;20158;-88
2022/04/14 07:41:19;;;;;;;8.15;4.15;;;;;;;;;;6270079;22;20158;-88
2022/04/14 07:44:24;;;;;;;12.50;4.10;;;;;;;;;;6290367;22;20182;-86
2022/04/14 07:47:29;;;;;;;13.10;4.75;;;;;;;;;;6272135;22;20165;-87
2022/04/14 07:50:34;;;;;;;8.73;4.50;;;;;;;;;;6270230;22;20216;-88
2022/04/14 07:53:41;;;;;;;13.98;5.63;;;;;;;;;;6267947;22;20165;-87
2022/04/14 07:56:48;;;;;;;12.77;5.25;;;;;;;;;;6268004;22;20193;-87
2022/04/14 07:59:52;;;;;;;15.77;4.80;;;;;;;;;;6270083;22;20213;-88
2022/04/14 08:02:58;;;;;;;11.70;4.93;;;;;;;;;;6270810;22;20170;-88
2022/04/14 08:06:04;;;;;;;9.65;5.20;;;;;;;;;;6271934;22;20170;-87
2022/04/14 08:09:10;;;;;;;8.20;5.10;;;;;;;;;;6269560;22;20229;-87
2022/04/14 08:12:15;;;;;;;9.25;4.72;;;;;;;;;;6271223;22;20236;-88
2022/04/14 08:15:20;;;;;;;19.15;5.57;;;;;;;;;;6269245;22;20244;-88
2022/04/14 08:18:26;;;;;;;8.43;5.07;;;;;;;;;;6270916;22;20166;-89
2022/04/14 08:21:31;;;;;;;13.57;4.70;;;;;;;;;;6273877;22;20166;-89
2022/04/14 08:24:38;;;;;;;10.27;5.63;;;;;;;;;;6268854;22;20484;-87
2022/04/14 08:27:43;;;;;;;17.63;6.47;;;;;;;;;;6268210;22;20212;-88
2022/04/14 08:30:49;;;;;;;12.80;5.82;;;;;;;;;;6268914;22;20170;-88
2022/04/14 08:33:55;;;;;;;17.83;5.38;;;;;;;;;;6287732;22;20217;-88
2022/04/14 08:37:00;;;;;;;15.02;5.65;;;;;;;;;;6270530;22;20297;-89
2022/04/14 08:40:09;;;;;;;14.88;5.45;;;;;;;;;;6273354;22;20217;-88
2022/04/14 08:43:17;;;;;;;13.80;5.47;;;;;;;;;;6275442;22;20252;-89
2022/04/14 08:46:24;;;;;;;11.15;5.85;;;;;;;;;;6275630;22;20195;-88
2022/04/14 08:49:30;;;;;;;19.38;5.82;;;;;;;;;;6273860;22;20166;-89
2022/04/14 08:52:36;;;;;;;17.08;5.35;;;;;;;;;;6274651;22;20165;-87
2022/04/14 08:55:43;;;;;;;13.23;6.07;;;;;;;;;;6272798;22;20176;-90
2022/04/14 08:58:49;;;;;;;12.93;6.47;;;;;;;;;;6273680;22;20162;-88
2022/04/14 09:01:56;;;;;;;14.60;6.10;;;;;;;;;;6274302;22;20166;-87
2022/04/14 09:05:01;;;;;;;16.60;6.80;;;;;;;;;;6276474;22;20166;-90
2022/04/14 09:08:07;;;;;;;11.98;6.35;;;;;;;;;;6275867;22;20234;-89
2022/04/14 09:11:16;;;;;;;14.32;6.20;;;;;;;;;;6275276;22;20491;-88
2022/04/14 09:14:22;;;;;;;14.95;6.25;;;;;;;;;;6274447;22;20208;-87
2022/04/14 09:17:28;;;;;;;10.80;5.78;;;;;;;;;;6273311;22;20193;-89
2022/04/14 09:20:36;;;;;;;13.38;6.20;;;;;;;;;;6273140;22;20166;-89
2022/04/14 09:23:41;;;;;;;14.57;6.55;;;;;;;;;;6277670;22;20161;-89
2022/04/14 09:26:47;;;;;;;12.75;6.28;;;;;;;;;;6273662;22;20223;-89
2022/04/14 09:29:53;;;;;;;14.05;7.28;;;;;;;;;;6272428;22;20550;-86
2022/04/14 09:33:00;;;;;;;13.98;6.45;;;;;;;;;;6274045;22;20161;-89
2022/04/14 09:36:07;;;;;;;16.35;5.85;;;;;;;;;;6274023;22;20229;-89
2022/04/14 09:39:13;;;;;;;11.82;6.03;;;;;;;;;;6275590;22;20184;-87
2022/04/14 09:42:21;;;;;;;8.85;5.68;;;;;;;;;;6274370;22;20245;-89
2022/04/14 09:45:28;;;;;;;14.82;6.50;;;;;;;;;;6273496;22;20169;-89
2022/04/14 09:48:33;;;;;;;9.52;6.05;;;;;;;;;;6272547;22;20173;-89
2022/04/14 09:51:39;;;;;;;17.25;6.50;;;;;;;;;;6272913;22;20165;-90
2022/04/14 09:54:46;;;;;;;12.73;6.93;;;;;;;;;;6273250;22;20161;-89
2022/04/14 09:58:06;;;;;;;17.98;7.35;;;;;;;;;;6273871;22;20510;-89
2022/04/14 10:01:21;;;;;;;14.13;6.18;;;;;;;;;;6275255;22;20189;-88
2022/04/14 10:04:32;;;;;;;10.95;6.05;;;;;;;;;;6277083;22;20189;-91
2022/04/14 10:07:38;;;;;;;8.77;6.20;;;;;;;;;;6276831;22;20149;-90
2022/04/14 10:10:57;;;;;;;15.23;6.70;;;;;;;;;;6277150;22;20169;-90
2022/04/14 10:14:14;;;;;;;13.23;6.63;;;;;;;;;;6276846;22;20273;-89
2022/04/14 10:17:31;;;;;;;10.80;6.10;;;;;;;;;;6275542;22;20208;-89
2022/04/14 10:20:38;;;;;;;13.38;6.38;;;;;;;;;;6276365;22;20603;-88
2022/04/14 10:23:43;;;;;;;10.57;6.28;;;;;;;;;;6273881;22;20165;-89
2022/04/14 10:26:50;;;;;;;8.85;5.68;;;;;;;;;;6271148;22;20292;-91
2022/04/14 10:29:57;;;;;;;16.65;6.22;;;;;;;;;;6272641;22;20226;-90
2022/04/14 10:33:03;;;;;;;16.30;6.13;;;;;;;;;;6276116;22;20187;-89
2022/04/14 10:36:09;;;;;;;7.22;5.95;;;;;;;;;;6271023;22;20607;-88
2022/04/14 10:39:15;;;;;;;13.52;6.47;;;;;;;;;;6272982;22;20156;-90
2022/04/14 10:42:24;;;;;;;11.73;6.72;;;;;;;;;;6272709;22;20612;-90
2022/04/14 10:45:32;;;;;;;14.57;6.00;;;;;;;;;;6270581;22;20232;-90
2022/04/14 10:48:40;;;;;;;11.05;6.50;;;;;;;;;;6274462;22;20209;-89
2022/04/14 10:51:46;;;;;;;15.05;7.25;;;;;;;;;;6270570;22;20657;-88
2022/04/14 10:54:58;;;;;;;12.50;6.97;;;;;;;;;;6272784;22;20196;-88
2022/04/14 10:58:03;;;;;;;12.27;6.63;;;;;;;;;;6276292;22;20169;-88
2022/04/14 11:01:14;;;;;;;9.73;6.32;;;;;;;;;;6273088;22;20257;-89
2022/04/14 11:04:30;;;;;;;9.82;6.20;;;;;;;;;;6273698;22;20168;-88
2022/04/14 11:07:36;;;;;;;9.77;5.60;;;;;;;;;;6272017;22;20608;-88
2022/04/14 11:10:41;;;;;;;14.38;5.70;;;;;;;;;;6274841;22;20146;-89
2022/04/14 11:14:05;;;;;;;9.50;5.95;;;;;;;;;;6274348;22;20165;-90
2022/04/14 11:17:32;;;;;;;14.60;6.22;;;;;;;;;;6274162;22;20267;-90
2022/04/14 11:20:54;;;;;;;13.88;5.00;;;;;;;;;;6274430;22;20173;-88
2022/04/14 11:24:08;;;;;;;9.43;4.88;;;;;;;;;;6274356;22;20173;-90
2022/04/14 11:27:15;;;;;;;17.85;4.80;;;;;;;;;;6275129;22;20233;-90
2022/04/14 11:30:35;;;;;;;7.75;4.38;;;;;;;;;;6276182;22;20212;-90
2022/04/14 11:33:44;;;;;;;16.63;5.22;;;;;;;;;;6275077;22;20173;-90
2022/04/14 11:36:50;;;;;;;10.93;4.78;;;;;;;;;;6275747;22;20281;-90
2022/04/14 11:40:10;;;;;;;10.05;4.28;;;;;;;;;;6273946;22;20170;-89
2022/04/14 11:43:17;;;;;;;8.20;4.70;;;;;;;;;;6275398;22;20542;-88
2022/04/14 11:46:23;;;;;;;20.00;5.40;;;;;;;;;;6274326;22;20184;-88
2022/04/14 11:49:36;;;;;;;13.63;4.90;;;;;;;;;;6271799;22;20239;-90
2022/04/14 11:52:44;;;;;;;10.23;5.63;;;;;;;;;;6273458;22;20612;-89
2022/04/14 11:55:49;;;;;;;9.07;5.07;;;;;;;;;;6272637;22;20181;-88
2022/04/14 11:58:55;;;;;;;11.40;5.32;;;;;;;;;;6272874;22;20156;-88
2022/04/14 12:02:03;;;;;;;9.82;4.93;;;;;;;;;;6271617;22;20164;-89
2022/04/14 12:05:11;;;;;;;11.55;5.38;;;;;;;;;;6271293;22;20193;-89
2022/04/14 12:08:17;;;;;;;11.40;4.70;;;;;;;;;;6273029;22;20192;-89
2022/04/14 12:11:24;;;;;;;10.63;4.38;;;;;;;;;;6274031;22;20164;-89
2022/04/14 12:14:31;;;;;;;13.00;5.10;;;;;;;;;;6274575;22;20168;-89
2022/04/14 12:17:39;;;;;;;14.43;5.10;;;;;;;;;;6274880;22;20610;-89
2022/04/14 12:20:45;;;;;;;12.95;4.03;;;;;;;;;;6273323;22;20144;-90
2022/04/14 12:23:51;;;;;;;8.20;4.25;;;;;;;;;;6273912;22;20152;-89
2022/04/14 12:26:58;;;;;;;6.55;4.10;;;;;;;;;;6274310;22;20236;-88
2022/04/14 12:30:06;;;;;;;6.75;3.80;;;;;;;;;;6276203;22;20161;-88
2022/04/14 12:33:11;;;;;;;16.90;4.35;;;;;;;;;;6273682;22;20193;-89
2022/04/14 12:36:18;;;;;;;10.82;4.15;;;;;;;;;;6273695;22;20652;-89
2022/04/14 12:39:23;;;;;;;9.85;3.67;;;;;;;;;;6277997;22;20161;-89
2022/04/14 12:42:31;;;;;;;10.85;3.80;;;;;;;;;;6275140;22;20220;-91
2022/04/14 12:49:02;;;;;;;8.85;4.20;;;;;;;;;;6276667;22;20169;-88
2022/04/14 12:52:10;;;;;;;9.95;3.63;;;;;;;;;;6275504;22;20229;-88
2022/04/14 12:55:22;;;;;;;13.82;4.10;;;;;;;;;;6277079;22;20169;-88
2022/04/14 12:58:28;;;;;;;9.15;4.40;;;;;;;;;;6276853;22;20180;-89
2022/04/14 13:01:45;;;;;;;7.32;3.63;;;;;;;;;;6277325;22;20188;-89
2022/04/14 13:04:51;;;;;;;8.73;4.45;;;;;;;;;;6277216;22;20172;-89
2022/04/14 13:07:59;;;;;;;12.10;4.75;;;;;;;;;;6276205;22;20165;-89
2022/04/14 13:11:04;;;;;;;12.65;4.68;;;;;;;;;;6276599;22;20172;-88
2022/04/14 13:14:20;;;;;;;9.40;4.00;;;;;;;;;;6277526;22;20164;-88
2022/04/14 13:17:25;;;;;;;14.63;5.00;;;;;;;;;;6276886;22;20196;-89
2022/04/14 13:20:36;;;;;;;11.10;4.60;;;;;;;;;;6276283;22;20165;-89
2022/04/14 13:23:45;;;;;;;14.02;4.93;;;;;;;;;;6275184;22;20596;-88
2022/04/14 13:26:53;;;;;;;12.68;4.75;;;;;;;;;;6274952;22;20157;-89
2022/04/14 13:29:59;;;;;;;9.93;4.55;;;;;;;;;;6273943;22;20169;-87
2022/04/14 13:33:04;;;;;;;19.92;4.93;;;;;;;;;;6293269;22;20169;-89
2022/04/14 13:36:10;;;;;;;11.98;4.85;;;;;;;;;;6274505;22;20240;-89
2022/04/14 13:39:19;;;;;;;13.93;5.63;;;;;;;;;;6273011;22;20173;-89
2022/04/14 13:42:24;;;;;;;16.17;5.70;;;;;;;;;;6273928;22;20161;-88
2022/04/14 13:45:30;;;;;;;11.68;5.53;;;;;;;;;;6276323;22;20242;-89
2022/04/14 13:48:35;;;;;;;12.73;4.30;;;;;;;;;;6274248;22;20188;-89
2022/04/14 13:51:41;;;;;;;16.02;4.82;;;;;;;;;;6274678;22;20154;-90
2022/04/14 13:54:55;;;;;;;15.32;5.63;;;;;;;;;;6273918;22;20165;-88
2022/04/14 13:58:00;;;;;;;15.30;5.65;;;;;;;;;;6272446;22;20636;-89
2022/04/14 14:01:07;;;;;;;15.88;5.70;;;;;;;;;;6273862;22;20192;-88
2022/04/14 14:04:13;;;;;;;14.15;6.20;;;;;;;;;;6272642;22;20160;-90
2022/04/14 14:07:20;;;;;;;13.95;5.85;;;;;;;;;;6290692;22;20149;-90
2022/04/14 14:10:26;;;;;;;15.25;5.93;;;;;;;;;;6272267;22;20177;-89
2022/04/14 14:13:32;;;;;;;14.68;6.68;;;;;;;;;;6273901;22;20189;-89
2022/04/14 14:16:38;;;;;;;15.38;6.63;;;;;;;;;;6276112;22;20204;-88
2022/04/14 14:19:44;;;;;;;11.65;6.15;;;;;;;;;;6255631;22;20162;-88
2022/04/14 14:22:49;;;;;;;11.75;5.50;;;;;;;;;;6274458;22;20153;-88
2022/04/14 14:25:56;;;;;;;11.93;5.80;;;;;;;;;;6275439;22;20242;-89
2022/04/14 14:29:07;;;;;;;8.88;6.20;;;;;;;;;;6274392;22;20653;-91
2022/04/14 14:32:19;;;;;;;12.18;5.70;;;;;;;;;;6294886;22;20170;-88
2022/04/14 14:35:27;;;;;;;13.10;6.03;;;;;;;;;;6272184;22;20169;-90
2022/04/14 14:38:32;;;;;;;10.00;5.60;;;;;;;;;;6274048;22;20308;-87
2022/04/14 14:41:39;;;;;;;12.40;5.65;;;;;;;;;;6276299;22;20264;-89
2022/04/14 14:44:45;;;;;;;15.98;5.22;;;;;;;;;;6275363;22;20161;-88
2022/04/14 14:51:10;;;;;;;11.43;4.97;;;;;;;;;;6276082;22;20185;-87
2022/04/14 14:54:17;;;;;;;14.50;4.35;;;;;;;;;;6276318;22;20605;-91
2022/04/14 15:00:48;;;;;;;11.80;4.57;;;;;;;;;;6276797;22;20196;-88
2022/04/14 15:03:54;;;;;;;9.10;4.15;;;;;;;;;;6276232;22;20173;-89
2022/04/14 15:07:00;;;;;;;6.68;3.70;;;;;;;;;;6275237;22;20184;-87
2022/04/14 15:10:07;;;;;;;12.15;4.03;;;;;;;;;;6278725;22;20208;-90
2022/04/14 18:37:42;;;;;;;15.10;6.50;;;;;;;;;;6290271;22;20201;-88
2022/04/14 18:40:47;;;;;;;19.95;7.15;;;;;;;;;;6321514;22;20246;-88
2022/04/14 18:43:52;;;;;;;13.63;6.45;;;;;;;;;;6324580;22;20168;-88
2022/04/14 18:46:58;;;;;;;17.23;6.68;;;;;;;;;;6321852;22;20168;-88
2022/04/14 18:50:05;;;;;;;15.75;6.32;;;;;;;;;;6322366;22;20180;-88
2022/04/14 18:53:12;;;;;;;15.80;6.78;;;;;;;;;;6321783;22;20165;-87
2022/04/14 18:56:17;;;;;;;19.00;8.00;;;;;;;;;;6302234;22;20180;-89
2022/04/14 18:59:23;;;;;;;21.23;7.40;;;;;;;;;;6321891;22;20161;-88
2022/04/14 19:02:29;;;;;;;18.25;8.07;;;;;;;;;;6301274;22;20160;-86
2022/04/14 19:05:37;;;;;;;21.58;9.30;;;;;;;;;;6321589;22;20150;-88
2022/04/14 19:08:44;;;;;;;12.27;6.63;;;;;;;;;;6320600;22;20169;-87
2022/04/14 19:11:49;;;;;;;13.35;7.28;;;;;;;;;;6321314;22;20184;-88
2022/04/14 19:14:54;;;;;;;15.20;7.45;;;;;;;;;;6319934;22;20222;-87
2022/04/14 19:18:00;;;;;;;16.27;7.38;;;;;;;;;;6321609;22;20188;-87
2022/04/14 19:21:06;;;;;;;14.30;6.55;;;;;;;;;;6305221;22;20177;-88
2022/04/14 19:24:15;;;;;;;17.13;6.90;;;;;;;;;;6303121;22;20229;-88
2022/04/14 19:27:21;;;;;;;16.08;7.20;;;;;;;;;;6303935;22;20251;-85
2022/04/14 19:30:27;;;;;;;19.25;8.77;;;;;;;;;;6320346;22;20161;-87
2022/04/14 19:33:35;;;;;;;18.77;9.05;;;;;;;;;;6322816;22;20237;-89
2022/04/14 19:36:42;;;;;;;16.45;7.88;;;;;;;;;;6300422;22;20188;-88
2022/04/14 19:39:49;;;;;;;15.80;8.95;;;;;;;;;;6302058;22;20172;-87
2022/04/14 19:42:54;;;;;;;18.77;8.80;;;;;;;;;;6321673;22;20169;-87
2022/04/14 19:46:01;;;;;;;18.15;9.98;;;;;;;;;;6302982;22;20230;-87
2022/04/14 19:49:07;;;;;;;19.88;9.52;;;;;;;;;;6302175;22;20165;-85
2022/04/14 19:52:12;;;;;;;27.05;11.85;;;;;;;;;;6302601;22;20235;-87
2022/04/14 19:55:18;;;;;;;25.52;11.02;;;;;;;;;;6303484;22;20532;-88
2022/04/14 19:58:23;;;;;;;19.17;9.45;;;;;;;;;;6302622;22;20257;-88
2022/04/14 20:01:29;;;;;;;25.83;11.38;;;;;;;;;;6320823;22;20184;-89
2022/04/14 20:04:34;;;;;;;22.35;11.23;;;;;;;;;;6303414;22;20211;-88
2022/04/14 20:07:39;;;;;;;35.65;12.98;;;;;;;;;;6302342;22;20207;-88
2022/04/14 20:10:48;;;;;;;23.15;10.93;;;;;;;;;;6302606;22;20177;-86
2022/04/14 20:13:53;;;;;;;19.20;7.65;;;;;;;;;;6302258;22;20232;-88
2022/04/14 20:16:59;;;;;;;14.70;7.30;;;;;;;;;;6320901;22;20165;-87
2022/04/14 20:20:04;;;;;;;16.30;6.35;;;;;;;;;;6322030;22;20217;-87
2022/04/14 20:23:10;;;;;;;14.18;7.15;;;;;;;;;;6320386;22;20169;-86
2022/04/14 20:26:16;;;;;;;26.48;10.48;;;;;;;;;;6320200;22;20153;-88
2022/04/14 20:29:21;;;;;;;14.52;8.77;;;;;;;;;;6302525;22;20169;-88
2022/04/14 20:32:27;;;;;;;14.90;8.20;;;;;;;;;;6303127;22;20161;-86
2022/04/14 20:35:32;;;;;;;18.33;7.95;;;;;;;;;;6304054;22;20181;-88
2022/04/14 20:38:37;;;;;;;11.18;7.00;;;;;;;;;;6301714;22;20207;-88
2022/04/14 20:41:44;;;;;;;16.33;6.97;;;;;;;;;;6320324;22;20169;-87
2022/04/14 20:44:50;;;;;;;16.20;7.00;;;;;;;;;;6302520;22;20169;-88
2022/04/14 20:47:55;;;;;;;17.10;6.75;;;;;;;;;;6301057;22;20251;-89
2022/04/14 20:51:00;;;;;;;16.05;7.35;;;;;;;;;;6320381;22;20169;-87
2022/04/14 20:54:06;;;;;;;12.40;6.80;;;;;;;;;;6301527;22;20160;-87
2022/04/14 20:57:14;;;;;;;13.43;6.88;;;;;;;;;;6300098;22;20229;-87
2022/04/14 21:00:19;;;;;;;12.43;7.28;;;;;;;;;;6301043;22;20236;-86
2022/04/14 21:03:24;;;;;;;13.25;6.82;;;;;;;;;;6320098;22;20891;-87
2022/04/14 21:06:30;;;;;;;22.50;7.10;;;;;;;;;;6300325;22;20235;-86
2022/04/14 21:09:38;;;;;;;17.95;8.20;;;;;;;;;;6320808;22;20164;-87
2022/04/14 21:12:46;;;;;;;12.00;7.22;;;;;;;;;;6319587;22;20520;-87
2022/04/14 21:15:51;;;;;;;13.50;7.60;;;;;;;;;;6320457;22;20248;-87
2022/04/14 21:18:56;;;;;;;14.38;7.55;;;;;;;;;;6302223;22;20193;-86
2022/04/14 21:22:03;;;;;;;16.23;8.48;;;;;;;;;;6304857;22;20161;-86
2022/04/14 21:25:08;;;;;;;25.70;11.45;;;;;;;;;;6300757;22;20184;-87
2022/04/14 21:28:17;;;;;;;18.75;8.18;;;;;;;;;;6302023;22;20297;-86
2022/04/14 21:31:22;;;;;;;17.48;7.43;;;;;;;;;;6319258;22;20157;-87
2022/04/14 21:34:27;;;;;;;19.13;8.23;;;;;;;;;;6320543;22;20165;-87
2022/04/14 21:37:32;;;;;;;13.60;7.38;;;;;;;;;;6321549;22;20192;-88
2022/04/14 21:40:40;;;;;;;15.18;8.25;;;;;;;;;;6318506;22;20160;-87
2022/04/14 21:43:47;;;;;;;14.95;8.02;;;;;;;;;;6320527;22;20216;-87
2022/04/14 21:46:56;;;;;;;16.35;8.05;;;;;;;;;;6317533;22;20192;-87
2022/04/14 21:50:01;;;;;;;15.07;8.68;;;;;;;;;;6319813;22;20170;-88
2022/04/14 21:53:06;;;;;;;16.75;7.97;;;;;;;;;;6319212;22;20165;-88
2022/04/14 21:56:11;;;;;;;15.00;8.13;;;;;;;;;;6318923;22;20165;-87
2022/04/14 21:59:21;;;;;;;19.20;8.65;;;;;;;;;;6320047;22;20603;-86